Time;durP1;ratioP1;P1;durP2;ratioP2;P2;SDS_P1;SDS_P2;PMS_P1;PMS_P2;Temp;Humidity;BMP_temperature;BMP_pressure;BME280_temperature;BME280_humidity;BME280_pressure;Samples;Min_cycle;Max_cycle;Signal;HPM_P1;HPM_P2
2022/06/26 00:02:25;;;;;;;;;;;14.80;99.90;;;;;;5073258;28;19987;-74
2022/06/26 00:04:50;;;;;;;;;;;14.80;99.90;;;;;;5071803;28;19913;-74
2022/06/26 00:07:16;;;;;;;;;;;14.80;99.90;;;;;;5073744;28;20003;-74
2022/06/26 00:09:43;;;;;;;;;;;14.90;99.90;;;;;;5073825;28;20415;-74
2022/06/26 00:12:08;;;;;;;;;;;14.90;99.90;;;;;;5071433;28;20002;-74
2022/06/26 00:14:34;;;;;;;;;;;15.10;99.90;;;;;;5072792;28;19912;-74
2022/06/26 00:17:00;;;;;;;;;;;15.30;99.90;;;;;;5073267;28;19988;-74
2022/06/26 00:19:25;;;;;;;;;;;15.50;99.90;;;;;;5073586;28;20167;-74
2022/06/26 00:21:51;;;;;;;;;;;15.80;99.90;;;;;;5073006;28;19938;-74
2022/06/26 00:24:17;;;;;;;;;;;15.90;99.90;;;;;;5072737;28;19969;-74
2022/06/26 00:26:42;;;;;;;;;;;15.90;99.90;;;;;;5071656;28;19912;-74
2022/06/26 00:29:08;;;;;;;;;;;16.20;99.90;;;;;;5073348;28;20376;-74
2022/06/26 00:31:33;;;;;;;;;;;16.60;99.90;;;;;;5072617;28;20555;-74
2022/06/26 00:33:59;;;;;;;;;;;16.70;99.90;;;;;;5071301;28;19908;-74
2022/06/26 00:36:25;;;;;;;;;;;16.90;99.90;;;;;;5073146;28;19908;-74
2022/06/26 00:38:51;;;;;;;;;;;17.20;99.90;;;;;;5073102;28;19909;-74
2022/06/26 00:41:16;;;;;;;;;;;17.40;99.90;;;;;;5072179;28;20385;-74
2022/06/26 00:43:42;;;;;;;;;;;17.60;99.90;;;;;;5066545;28;19915;-74
2022/06/26 00:46:07;;;;;;;;;;;17.70;99.90;;;;;;5072134;28;19955;-74
2022/06/26 00:48:33;;;;;;;;;;;17.80;99.90;;;;;;5072898;28;19916;-74
2022/06/26 00:50:58;;;;;;;;;;;17.80;99.90;;;;;;5072897;28;19916;-74
2022/06/26 00:53:24;;;;;;;;;;;17.80;99.90;;;;;;5071754;28;19974;-74
2022/06/26 00:55:49;;;;;;;;;;;17.90;99.90;;;;;;5072420;28;19908;-75
2022/06/26 00:58:15;;;;;;;;;;;17.90;99.90;;;;;;5072608;28;19908;-75
2022/06/26 01:00:41;;;;;;;;;;;17.90;99.90;;;;;;5072966;28;19952;-75
2022/06/26 01:03:08;;;;;;;;;;;17.90;99.90;;;;;;5071644;28;20428;-75
2022/06/26 01:05:33;;;;;;;;;;;17.80;99.90;;;;;;5072474;28;19919;-75
2022/06/26 01:07:59;;;;;;;;;;;17.80;99.90;;;;;;5070854;28;19912;-75
2022/06/26 01:10:24;;;;;;;;;;;17.80;99.90;;;;;;5072435;28;19916;-75
2022/06/26 01:12:50;;;;;;;;;;;17.50;99.90;;;;;;5064672;28;19962;-75
2022/06/26 01:15:17;;;;;;;;;;;17.50;99.90;;;;;;5071209;28;20021;-75
2022/06/26 01:17:42;;;;;;;;;;;17.50;99.90;;;;;;5072502;28;20254;-75
2022/06/26 01:20:08;;;;;;;;;;;17.50;99.90;;;;;;5072284;28;19934;-75
2022/06/26 01:22:34;;;;;;;;;;;17.30;99.90;;;;;;5070252;28;19915;-75
2022/06/26 01:24:59;;;;;;;;;;;17.20;99.90;;;;;;5071463;28;19912;-76
2022/06/26 01:27:25;;;;;;;;;;;17.20;99.90;;;;;;5072051;28;20068;-75
2022/06/26 01:29:50;;;;;;;;;;;17.10;99.90;;;;;;5071771;28;19970;-74
2022/06/26 01:32:16;;;;;;;;;;;17.00;99.90;;;;;;5071496;28;20350;-74
2022/06/26 01:34:41;;;;;;;;;;;17.00;99.90;;;;;;5071474;28;19908;-74
2022/06/26 01:37:07;;;;;;;;;;;17.00;99.90;;;;;;5071784;28;20349;-74
2022/06/26 01:39:32;;;;;;;;;;;16.90;99.90;;;;;;5071837;28;19939;-74
2022/06/26 01:41:58;;;;;;;;;;;16.80;99.90;;;;;;5071174;28;19969;-74
2022/06/26 01:44:23;;;;;;;;;;;16.70;99.90;;;;;;5066751;28;19916;-74
2022/06/26 01:46:49;;;;;;;;;;;16.60;99.90;;;;;;5071718;28;19912;-74
2022/06/26 01:49:14;;;;;;;;;;;16.60;99.90;;;;;;5071655;28;19919;-74
2022/06/26 01:51:40;;;;;;;;;;;16.60;99.90;;;;;;5071308;28;20396;-74
2022/06/26 01:54:05;;;;;;;;;;;16.60;99.90;;;;;;5069796;28;19908;-74
2022/06/26 01:56:31;;;;;;;;;;;16.60;99.90;;;;;;5071306;28;19908;-74
2022/06/26 01:58:56;;;;;;;;;;;16.50;99.90;;;;;;5071228;28;20440;-75
2022/06/26 02:01:22;;;;;;;;;;;16.50;99.90;;;;;;5071157;28;19912;-74
2022/06/26 02:03:47;;;;;;;;;;;16.40;99.90;;;;;;5071194;28;19908;-74
2022/06/26 02:06:13;;;;;;;;;;;16.30;99.90;;;;;;5071315;28;19916;-74
2022/06/26 02:08:38;;;;;;;;;;;16.20;99.90;;;;;;5071474;28;19908;-75
2022/06/26 02:13:49;;;;;;;;;;;16.00;99.90;;;;;;5070727;28;19916;-75
2022/06/26 02:16:18;;;;;;;;;;;16.00;99.90;;;;;;5071035;28;19920;-74
2022/06/26 02:18:46;;;;;;;;;;;15.90;99.90;;;;;;5071362;28;19908;-75
2022/06/26 02:21:12;;;;;;;;;;;15.90;99.90;;;;;;5071202;28;20397;-75
2022/06/26 02:23:38;;;;;;;;;;;15.90;99.90;;;;;;5068979;28;20007;-74
2022/06/26 02:26:05;;;;;;;;;;;15.80;99.90;;;;;;5070665;28;20022;-74
2022/06/26 02:28:30;;;;;;;;;;;15.80;99.90;;;;;;5070313;28;19913;-74
2022/06/26 02:30:56;;;;;;;;;;;15.80;99.90;;;;;;5071325;28;20274;-75
2022/06/26 02:33:22;;;;;;;;;;;15.90;99.90;;;;;;5071338;28;19908;-75
2022/06/26 02:35:48;;;;;;;;;;;15.90;99.90;;;;;;5071617;28;19948;-75
2022/06/26 02:38:15;;;;;;;;;;;15.80;99.90;;;;;;5071195;28;20372;-75
2022/06/26 02:40:41;;;;;;;;;;;15.70;99.90;;;;;;5070159;28;20320;-75
2022/06/26 02:43:06;;;;;;;;;;;15.70;99.90;;;;;;5067490;28;19912;-75
2022/06/26 02:45:32;;;;;;;;;;;15.70;99.90;;;;;;5070731;28;19913;-75
2022/06/26 02:47:57;;;;;;;;;;;15.70;99.90;;;;;;5071011;28;20361;-75
2022/06/26 02:50:23;;;;;;;;;;;15.80;99.90;;;;;;5071049;28;19908;-75
2022/06/26 02:52:49;;;;;;;;;;;15.70;99.90;;;;;;5070534;28;19909;-75
2022/06/26 02:55:14;;;;;;;;;;;15.60;99.90;;;;;;5070180;28;19909;-75
2022/06/26 02:57:40;;;;;;;;;;;15.70;99.90;;;;;;5070600;28;19913;-75
2022/06/26 03:00:07;;;;;;;;;;;15.70;99.90;;;;;;5070828;28;19908;-75
2022/06/26 03:02:33;;;;;;;;;;;15.50;99.90;;;;;;5068845;28;20344;-75
2022/06/26 03:04:58;;;;;;;;;;;15.30;99.90;;;;;;5070521;28;20019;-75
2022/06/26 03:07:24;;;;;;;;;;;15.30;99.90;;;;;;5070800;28;19909;-75
2022/06/26 03:09:49;;;;;;;;;;;15.20;99.90;;;;;;5069403;28;19916;-75
2022/06/26 03:12:15;;;;;;;;;;;15.20;99.90;;;;;;5069902;28;20277;-75
2022/06/26 03:14:40;;;;;;;;;;;15.20;99.90;;;;;;5070055;28;19913;-75
2022/06/26 03:17:06;;;;;;;;;;;15.20;99.90;;;;;;5070772;28;19912;-75
2022/06/26 03:19:32;;;;;;;;;;;15.10;99.90;;;;;;5071036;28;20033;-75
2022/06/26 03:21:57;;;;;;;;;;;15.10;99.90;;;;;;5070508;28;20293;-75
2022/06/26 03:24:23;;;;;;;;;;;15.10;99.90;;;;;;5068701;28;19993;-75
2022/06/26 03:26:48;;;;;;;;;;;15.00;99.90;;;;;;5070394;28;19917;-75
2022/06/26 03:29:14;;;;;;;;;;;15.00;99.90;;;;;;5071127;28;19962;-75
2022/06/26 03:31:40;;;;;;;;;;;15.10;99.90;;;;;;5070348;28;19942;-75
2022/06/26 03:34:05;;;;;;;;;;;15.00;99.90;;;;;;5070328;28;19912;-74
2022/06/26 03:36:31;;;;;;;;;;;14.90;99.90;;;;;;5070654;28;19962;-75
2022/06/26 03:38:56;;;;;;;;;;;15.00;99.90;;;;;;5072080;28;20276;-75
2022/06/26 03:41:22;;;;;;;;;;;15.00;99.90;;;;;;5073691;28;19916;-75
2022/06/26 03:43:48;;;;;;;;;;;15.00;99.90;;;;;;5073139;28;20393;-75
2022/06/26 03:46:14;;;;;;;;;;;15.00;99.90;;;;;;5074078;28;19912;-75
2022/06/26 03:48:39;;;;;;;;;;;15.10;99.90;;;;;;5074243;28;19909;-75
2022/06/26 03:51:05;;;;;;;;;;;15.10;99.90;;;;;;5074284;28;19912;-75
2022/06/26 03:53:32;;;;;;;;;;;15.10;99.90;;;;;;5073038;28;19908;-75
2022/06/26 03:55:57;;;;;;;;;;;15.00;99.90;;;;;;5074082;28;20352;-75
2022/06/26 03:58:23;;;;;;;;;;;15.00;99.90;;;;;;5073758;28;19909;-75
2022/06/26 04:00:49;;;;;;;;;;;15.00;99.90;;;;;;5074018;28;19962;-75
2022/06/26 04:03:15;;;;;;;;;;;15.10;99.90;;;;;;5073094;28;19908;-75
2022/06/26 04:05:41;;;;;;;;;;;15.10;99.90;;;;;;5073863;28;19920;-75
2022/06/26 04:08:07;;;;;;;;;;;15.10;99.90;;;;;;5073913;28;19935;-75
2022/06/26 04:10:33;;;;;;;;;;;15.00;99.90;;;;;;5072506;28;20436;-75
2022/06/26 04:13:00;;;;;;;;;;;14.90;99.90;;;;;;5070459;28;19909;-75
2022/06/26 04:15:27;;;;;;;;;;;14.80;99.90;;;;;;5073000;28;19909;-75
2022/06/26 04:17:52;;;;;;;;;;;14.80;99.90;;;;;;5073800;28;19909;-75
2022/06/26 04:20:17;;;;;;;;;;;14.70;99.90;;;;;;5073734;28;20357;-75
2022/06/26 04:22:43;;;;;;;;;;;14.70;99.90;;;;;;5072950;28;20003;-75
2022/06/26 04:25:09;;;;;;;;;;;14.70;99.90;;;;;;5072889;28;19912;-75
2022/06/26 04:27:34;;;;;;;;;;;14.80;99.90;;;;;;5073359;28;19908;-75
2022/06/26 04:30:00;;;;;;;;;;;14.70;99.90;;;;;;5072571;28;20345;-75
2022/06/26 04:32:25;;;;;;;;;;;14.70;99.90;;;;;;5073131;28;19915;-75
2022/06/26 04:34:51;;;;;;;;;;;14.70;99.90;;;;;;5071465;28;19916;-75
2022/06/26 04:37:18;;;;;;;;;;;14.80;99.90;;;;;;5073245;28;19912;-75
2022/06/26 04:39:43;;;;;;;;;;;14.90;99.90;;;;;;5073333;28;19908;-75
2022/06/26 04:42:09;;;;;;;;;;;15.10;99.90;;;;;;5071672;28;19920;-75
2022/06/26 04:44:34;;;;;;;;;;;15.30;99.90;;;;;;5068673;28;20427;-75
2022/06/26 04:47:00;;;;;;;;;;;15.50;99.90;;;;;;5072891;28;19991;-75
2022/06/26 04:49:25;;;;;;;;;;;15.60;99.90;;;;;;5073198;28;20349;-75
2022/06/26 04:51:51;;;;;;;;;;;15.70;99.90;;;;;;5072032;28;19908;-75
2022/06/26 04:54:16;;;;;;;;;;;15.80;99.90;;;;;;5072480;28;20396;-75
2022/06/26 04:56:42;;;;;;;;;;;15.80;99.90;;;;;;5072767;28;19908;-75
2022/06/26 04:59:07;;;;;;;;;;;16.00;99.90;;;;;;5072987;28;20354;-76
2022/06/26 05:01:32;;;;;;;;;;;16.10;99.90;;;;;;5072482;28;19981;-75
2022/06/26 05:03:58;;;;;;;;;;;16.20;99.90;;;;;;5072357;28;19909;-75
2022/06/26 05:06:24;;;;;;;;;;;16.20;99.90;;;;;;5072498;28;19912;-75
2022/06/26 05:08:50;;;;;;;;;;;16.20;99.90;;;;;;5072702;28;19915;-75
2022/06/26 05:11:15;;;;;;;;;;;16.20;99.90;;;;;;5065846;28;19908;-75
2022/06/26 05:13:41;;;;;;;;;;;16.20;99.90;;;;;;5071470;28;20285;-76
2022/06/26 05:16:07;;;;;;;;;;;16.30;99.90;;;;;;5071043;28;19916;-75
2022/06/26 05:18:33;;;;;;;;;;;16.30;99.90;;;;;;5072724;28;20330;-75
2022/06/26 05:20:58;;;;;;;;;;;16.40;99.90;;;;;;5072721;28;19908;-75
2022/06/26 05:23:24;;;;;;;;;;;16.40;99.90;;;;;;5071279;28;20897;-75
2022/06/26 05:25:53;;;;;;;;;;;16.50;99.90;;;;;;5071164;28;19912;-75
2022/06/26 05:28:19;;;;;;;;;;;16.60;99.90;;;;;;5072209;28;20343;-74
2022/06/26 05:30:44;;;;;;;;;;;16.60;99.90;;;;;;5072353;28;19908;-74
2022/06/26 05:33:10;;;;;;;;;;;16.60;99.90;;;;;;5071556;28;19912;-74
2022/06/26 05:35:35;;;;;;;;;;;16.60;99.90;;;;;;5072229;28;20404;-74
2022/06/26 05:38:01;;;;;;;;;;;16.70;99.90;;;;;;5072127;28;19909;-74
2022/06/26 05:40:27;;;;;;;;;;;16.70;99.90;;;;;;5072187;28;19997;-75
2022/06/26 05:42:53;;;;;;;;;;;16.70;99.90;;;;;;5068552;28;20357;-74
2022/06/26 05:45:19;;;;;;;;;;;16.90;99.90;;;;;;5071299;28;19912;-75
2022/06/26 05:47:44;;;;;;;;;;;17.20;99.90;;;;;;5070791;28;19909;-75
2022/06/26 05:50:09;;;;;;;;;;;17.40;99.90;;;;;;5071874;28;20011;-74
2022/06/26 05:52:35;;;;;;;;;;;17.60;99.90;;;;;;5071501;28;19917;-75
2022/06/26 05:55:00;;;;;;;;;;;18.20;99.90;;;;;;5071079;28;20453;-75
2022/06/26 05:57:26;;;;;;;;;;;19.40;99.90;;;;;;5071717;28;19924;-74
2022/06/26 05:59:51;;;;;;;;;;;20.00;99.90;;;;;;5072076;28;19915;-74
2022/06/26 06:02:17;;;;;;;;;;;21.00;99.90;;;;;;5070913;28;19954;-74
2022/06/26 06:04:43;;;;;;;;;;;21.10;99.90;;;;;;5071057;28;19987;-74
2022/06/26 06:07:08;;;;;;;;;;;21.40;99.90;;;;;;5071630;28;19916;-75
2022/06/26 06:09:34;;;;;;;;;;;21.70;99.90;;;;;;5071710;28;20377;-74
2022/06/26 06:11:59;;;;;;;;;;;21.80;99.90;;;;;;5071211;28;19915;-74
2022/06/26 06:14:25;;;;;;;;;;;21.90;99.90;;;;;;5065500;28;19909;-74
2022/06/26 06:16:50;;;;;;;;;;;21.70;99.90;;;;;;5071585;28;19915;-74
2022/06/26 06:19:16;;;;;;;;;;;21.00;99.90;;;;;;5071585;28;19920;-74
2022/06/26 06:21:41;;;;;;;;;;;21.50;99.90;;;;;;5071022;28;20467;-74
2022/06/26 06:24:07;;;;;;;;;;;21.90;99.90;;;;;;5069625;28;19961;-74
2022/06/26 06:26:32;;;;;;;;;;;21.80;99.90;;;;;;5071300;28;19912;-74
2022/06/26 06:28:58;;;;;;;;;;;21.10;99.90;;;;;;5071385;28;20289;-74
2022/06/26 06:31:23;;;;;;;;;;;20.90;99.90;;;;;;5071435;28;19909;-74
2022/06/26 06:33:49;;;;;;;;;;;21.50;99.90;;;;;;5070699;28;20031;-74
2022/06/26 06:36:14;;;;;;;;;;;22.00;99.90;;;;;;5071200;28;19917;-75
2022/06/26 06:38:40;;;;;;;;;;;21.90;99.90;;;;;;5071334;28;20389;-74
2022/06/26 06:41:06;;;;;;;;;;;22.60;99.90;;;;;;5071548;28;20380;-74
2022/06/26 06:43:32;;;;;;;;;;;23.00;99.90;;;;;;5068943;28;19916;-75
2022/06/26 06:45:58;;;;;;;;;;;23.10;99.90;;;;;;5071328;28;19958;-75
2022/06/26 06:48:26;;;;;;;;;;;23.30;99.90;;;;;;5071324;28;19909;-74
2022/06/26 06:50:52;;;;;;;;;;;23.40;99.90;;;;;;5071260;28;19915;-75
2022/06/26 06:53:18;;;;;;;;;;;24.00;99.90;;;;;;5070044;28;20349;-75
2022/06/26 06:55:44;;;;;;;;;;;24.20;99.90;;;;;;5071211;28;19912;-74
2022/06/26 06:58:09;;;;;;;;;;;23.60;99.90;;;;;;5071045;28;20328;-75
2022/06/26 07:00:35;;;;;;;;;;;23.70;99.90;;;;;;5067371;28;19917;-75
2022/06/26 07:03:01;;;;;;;;;;;24.00;99.90;;;;;;5068735;28;19915;-75
2022/06/26 07:05:27;;;;;;;;;;;24.00;99.90;;;;;;5070359;28;20369;-75
2022/06/26 07:07:53;;;;;;;;;;;24.50;99.90;;;;;;5071241;28;19945;-75
2022/06/26 07:10:18;;;;;;;;;;;24.30;99.90;;;;;;5071400;28;19912;-75
2022/06/26 07:12:57;;;;;;;;;;;24.60;99.90;;;;;;5067008;28;20008;-75
2022/06/26 07:15:23;;;;;;;;;;;23.80;99.90;;;;;;5072118;28;19962;-75
2022/06/26 07:17:49;;;;;;;;;;;24.10;99.80;;;;;;5075249;28;19912;-76
2022/06/26 07:20:14;;;;;;;;;;;24.50;99.30;;;;;;5075087;28;19909;-76
2022/06/26 07:22:40;;;;;;;;;;;24.30;99.00;;;;;;5074392;28;20266;-76
2022/06/26 07:25:05;;;;;;;;;;;24.80;99.40;;;;;;5074373;28;20617;-78
2022/06/26 07:27:31;;;;;;;;;;;25.00;99.90;;;;;;5074984;28;19908;-75
2022/06/26 07:29:57;;;;;;;;;;;25.10;99.00;;;;;;5074941;28;19917;-75
2022/06/26 07:32:22;;;;;;;;;;;25.50;95.80;;;;;;5074056;28;19956;-75
2022/06/26 07:34:48;;;;;;;;;;;26.00;95.80;;;;;;5074175;28;19947;-75
2022/06/26 07:37:13;;;;;;;;;;;24.90;95.80;;;;;;5073148;28;20042;-75
2022/06/26 07:39:39;;;;;;;;;;;25.80;96.40;;;;;;5074597;28;20273;-75
2022/06/26 07:42:05;;;;;;;;;;;26.60;96.30;;;;;;5073657;28;20374;-75
2022/06/26 07:44:30;;;;;;;;;;;26.20;94.60;;;;;;5073537;28;19916;-75
2022/06/26 07:46:57;;;;;;;;;;;26.50;94.20;;;;;;5072719;28;20381;-75
2022/06/26 07:49:22;;;;;;;;;;;26.10;95.00;;;;;;5074309;28;19915;-75
2022/06/26 07:51:48;;;;;;;;;;;26.80;95.40;;;;;;5073603;28;20331;-75
2022/06/26 07:54:14;;;;;;;;;;;27.20;92.50;;;;;;5073946;28;20269;-76
2022/06/26 07:56:39;;;;;;;;;;;27.60;93.00;;;;;;5071554;28;19971;-75
2022/06/26 07:59:05;;;;;;;;;;;27.10;93.60;;;;;;5064682;28;19948;-75
2022/06/26 08:01:31;;;;;;;;;;;26.60;91.10;;;;;;5062760;28;19909;-76
2022/06/26 08:03:56;;;;;;;;;;;26.80;93.20;;;;;;5063497;28;19956;-76
2022/06/26 08:06:22;;;;;;;;;;;26.60;91.00;;;;;;5056632;28;19916;-76
2022/06/26 08:08:47;;;;;;;;;;;26.50;91.30;;;;;;5055983;28;19916;-75
2022/06/26 08:11:13;;;;;;;;;;;27.00;91.80;;;;;;5061308;28;20297;-75
2022/06/26 08:13:38;;;;;;;;;;;26.90;90.70;;;;;;5056695;28;20191;-76
2022/06/26 08:16:04;;;;;;;;;;;27.70;91.50;;;;;;5056599;28;19909;-76
2022/06/26 08:18:30;;;;;;;;;;;27.60;91.40;;;;;;5061080;28;19999;-76
2022/06/26 08:20:55;;;;;;;;;;;28.20;90.10;;;;;;5073740;28;19908;-76
2022/06/26 08:23:21;;;;;;;;;;;28.20;88.10;;;;;;5071287;28;20420;-76
2022/06/26 08:25:47;;;;;;;;;;;28.20;87.10;;;;;;5071921;28;20373;-76
2022/06/26 08:28:13;;;;;;;;;;;27.90;88.00;;;;;;5073486;28;19915;-76
2022/06/26 08:30:38;;;;;;;;;;;27.80;88.30;;;;;;5073616;28;19909;-76
2022/06/26 08:33:04;;;;;;;;;;;28.30;85.50;;;;;;5073104;28;20392;-76
2022/06/26 08:35:30;;;;;;;;;;;28.70;90.20;;;;;;5073034;28;19908;-76
2022/06/26 08:37:55;;;;;;;;;;;28.30;86.10;;;;;;5073546;28;19918;-76
2022/06/26 08:40:21;;;;;;;;;;;28.70;87.80;;;;;;5072113;28;19908;-76
2022/06/26 08:42:49;;;;;;;;;;;28.70;83.90;;;;;;5059548;28;19917;-76
2022/06/26 08:45:17;;;;;;;;;;;28.80;87.50;;;;;;5063135;28;19912;-76
2022/06/26 08:47:43;;;;;;;;;;;29.50;83.60;;;;;;5073314;28;19915;-76
2022/06/26 08:50:09;;;;;;;;;;;27.90;81.90;;;;;;5073185;28;19952;-76
2022/06/26 08:52:34;;;;;;;;;;;27.70;87.00;;;;;;5073202;28;19948;-76
2022/06/26 08:55:01;;;;;;;;;;;28.50;81.00;;;;;;5072880;28;20377;-76
2022/06/26 08:57:27;;;;;;;;;;;27.90;86.60;;;;;;5073131;28;20289;-76
2022/06/26 08:59:52;;;;;;;;;;;28.60;85.60;;;;;;5073130;28;19908;-76
2022/06/26 09:02:18;;;;;;;;;;;29.80;81.00;;;;;;5071789;28;19954;-76
2022/06/26 09:04:43;;;;;;;;;;;30.20;81.50;;;;;;5072562;28;19941;-76
2022/06/26 09:07:09;;;;;;;;;;;29.90;80.00;;;;;;5072614;28;19919;-76
2022/06/26 09:09:37;;;;;;;;;;;30.90;83.30;;;;;;5073152;28;19951;-76
2022/06/26 09:12:03;;;;;;;;;;;30.60;81.00;;;;;;5072965;28;19998;-75
2022/06/26 09:14:29;;;;;;;;;;;30.60;75.90;;;;;;5072009;28;19913;-75
2022/06/26 09:16:56;;;;;;;;;;;28.70;79.70;;;;;;5073021;28;19946;-75
2022/06/26 09:19:26;;;;;;;;;;;29.60;82.80;;;;;;5072928;28;19912;-75
2022/06/26 09:21:52;;;;;;;;;;;29.60;85.90;;;;;;5072467;28;19908;-76
2022/06/26 09:24:19;;;;;;;;;;;29.70;82.90;;;;;;5070924;28;20002;-75
2022/06/26 09:26:45;;;;;;;;;;;28.50;77.90;;;;;;5072660;28;19919;-76
2022/06/26 09:29:14;;;;;;;;;;;27.40;88.90;;;;;;5072574;28;20324;-76
2022/06/26 09:31:40;;;;;;;;;;;28.10;86.00;;;;;;5072256;28;20285;-76
2022/06/26 09:34:06;;;;;;;;;;;28.80;89.10;;;;;;5071950;28;20396;-77
2022/06/26 09:36:32;;;;;;;;;;;29.30;84.60;;;;;;5073489;28;19908;-77
2022/06/26 09:38:58;;;;;;;;;;;29.80;83.10;;;;;;5072357;28;19948;-77
2022/06/26 09:41:33;;;;;;;;;;;27.80;82.10;;;;;;5071648;28;19944;-77
2022/06/26 09:43:59;;;;;;;;;;;29.40;90.80;;;;;;5065540;28;19977;-77
2022/06/26 09:46:30;;;;;;;;;;;28.90;82.30;;;;;;5071900;28;20011;-77
2022/06/26 09:48:57;;;;;;;;;;;28.30;84.10;;;;;;5071913;28;19909;-77
2022/06/26 09:51:23;;;;;;;;;;;27.50;82.50;;;;;;5066167;28;19915;-76
2022/06/26 09:53:49;;;;;;;;;;;27.70;83.90;;;;;;5069946;28;20004;-77
2022/06/26 09:56:14;;;;;;;;;;;27.90;88.70;;;;;;5071789;28;19943;-76
2022/06/26 09:58:40;;;;;;;;;;;28.00;81.40;;;;;;5071746;28;19967;-76
2022/06/26 10:06:35;;;;;;;;;;;29.80;82.60;;;;;;5071841;28;19938;-76
2022/06/26 10:09:02;;;;;;;;;;;30.00;78.30;;;;;;5071882;28;19915;-75
2022/06/26 10:11:28;;;;;;;;;;;28.90;78.70;;;;;;5071252;28;19919;-75
2022/06/26 10:13:59;;;;;;;;;;;28.40;80.70;;;;;;5070705;28;19909;-75
2022/06/26 10:16:27;;;;;;;;;;;28.40;86.80;;;;;;5071400;28;19962;-75
2022/06/26 10:18:53;;;;;;;;;;;29.20;78.90;;;;;;5069102;28;20369;-75
2022/06/26 10:21:18;;;;;;;;;;;29.20;80.60;;;;;;5070204;28;19958;-74
2022/06/26 10:23:44;;;;;;;;;;;29.00;83.10;;;;;;5069778;28;19916;-75
2022/06/26 10:26:10;;;;;;;;;;;28.20;84.60;;;;;;5070234;28;19962;-75
2022/06/26 10:28:35;;;;;;;;;;;29.00;82.20;;;;;;5070069;28;19908;-75
2022/06/26 10:31:07;;;;;;;;;;;28.40;82.10;;;;;;5070159;28;20521;-75
2022/06/26 10:33:33;;;;;;;;;;;29.70;82.20;;;;;;5069704;28;19924;-75
2022/06/26 10:35:58;;;;;;;;;;;29.30;79.80;;;;;;5071293;28;19909;-76
2022/06/26 10:38:25;;;;;;;;;;;29.90;79.30;;;;;;5071348;28;20071;-75
2022/06/26 10:44:15;;;;;;;;;;;29.30;87.00;;;;;;5065838;28;19932;-75
2022/06/26 10:46:45;;;;;;;;;;;29.20;82.30;;;;;;5061973;28;19935;-75
2022/06/26 10:49:11;;;;;;;;;;;28.40;78.80;;;;;;5070839;28;20269;-75
2022/06/26 10:51:41;;;;;;;;;;;29.10;79.20;;;;;;5071017;28;19916;-75
2022/06/26 10:54:20;;;;;;;;;;;29.00;82.00;;;;;;5072086;28;20011;-77
2022/06/26 10:56:46;;;;;;;;;;;28.30;81.90;;;;;;5067882;28;19912;-76
2022/06/26 10:59:16;;;;;;;;;;;27.90;83.00;;;;;;5073929;28;19931;-76
2022/06/26 11:01:41;;;;;;;;;;;29.00;79.40;;;;;;5065048;28;19970;-76
2022/06/26 11:04:07;;;;;;;;;;;28.50;80.40;;;;;;5072050;28;19920;-76
2022/06/26 11:06:38;;;;;;;;;;;28.20;81.80;;;;;;5067849;28;19919;-75
2022/06/26 11:09:03;;;;;;;;;;;27.90;81.10;;;;;;5067937;28;20380;-76
2022/06/26 11:11:33;;;;;;;;;;;27.50;84.80;;;;;;5073513;28;19975;-76
2022/06/26 11:14:01;;;;;;;;;;;27.70;83.40;;;;;;5066958;28;20007;-76
2022/06/26 11:16:43;;;;;;;;;;;27.50;83.70;;;;;;5072978;28;20377;-77
2022/06/26 11:19:28;;;;;;;;;;;29.00;83.90;;;;;;5073571;28;19916;-76
2022/06/26 11:22:07;;;;;;;;;;;28.70;80.50;;;;;;5071656;28;19970;-76
2022/06/26 11:24:32;;;;;;;;;;;28.50;79.80;;;;;;5072641;28;19916;-75
2022/06/26 11:26:58;;;;;;;;;;;28.30;78.70;;;;;;5073082;28;19918;-76
2022/06/26 11:29:23;;;;;;;;;;;28.20;81.60;;;;;;5074084;28;20305;-76
2022/06/26 11:31:49;;;;;;;;;;;29.20;80.90;;;;;;5073720;28;19916;-76
2022/06/26 11:34:15;;;;;;;;;;;29.10;81.70;;;;;;5074080;28;19912;-76
2022/06/26 11:36:54;;;;;;;;;;;30.40;75.30;;;;;;5074336;28;20377;-76
2022/06/26 11:39:20;;;;;;;;;;;29.70;76.40;;;;;;5074578;28;20062;-76
2022/06/26 11:41:46;;;;;;;;;;;28.70;80.10;;;;;;5071592;28;19909;-77
2022/06/26 11:44:11;;;;;;;;;;;28.50;79.50;;;;;;5069569;28;20289;-76
2022/06/26 11:46:37;;;;;;;;;;;28.50;80.90;;;;;;5070311;28;19921;-76
2022/06/26 11:49:02;;;;;;;;;;;29.20;78.40;;;;;;5070646;28;19909;-76
2022/06/26 11:51:31;;;;;;;;;;;29.30;81.10;;;;;;5070359;28;20381;-76
2022/06/26 11:53:56;;;;;;;;;;;29.00;78.50;;;;;;5070357;28;20128;-75
2022/06/26 11:56:23;;;;;;;;;;;29.50;84.60;;;;;;5070935;28;20009;-75
2022/06/26 11:58:50;;;;;;;;;;;29.40;78.50;;;;;;5070371;28;19916;-76
2022/06/26 12:01:16;;;;;;;;;;;29.20;77.10;;;;;;5071494;28;19955;-76
2022/06/26 12:03:47;;;;;;;;;;;28.80;83.40;;;;;;5073853;28;19914;-76
2022/06/26 12:06:24;;;;;;;;;;;29.10;78.80;;;;;;5072530;28;19912;-75
2022/06/26 12:08:50;;;;;;;;;;;28.30;78.30;;;;;;5068181;28;19908;-75
2022/06/26 12:11:15;;;;;;;;;;;28.40;80.10;;;;;;5073512;28;20258;-75
2022/06/26 12:13:43;;;;;;;;;;;28.60;81.30;;;;;;5072700;28;19912;-75
2022/06/26 12:16:09;;;;;;;;;;;28.60;80.90;;;;;;5073418;28;19999;-75
2022/06/26 12:18:36;;;;;;;;;;;28.20;83.00;;;;;;5067321;28;20098;-75
2022/06/26 12:21:01;;;;;;;;;;;27.60;81.40;;;;;;5073825;28;20342;-75
2022/06/26 12:23:34;;;;;;;;;;;27.60;82.20;;;;;;5071690;28;20019;-75
2022/06/26 12:26:07;;;;;;;;;;;28.20;79.30;;;;;;5073580;28;19912;-76
2022/06/26 12:28:32;;;;;;;;;;;27.50;79.80;;;;;;5073883;28;19916;-76
2022/06/26 12:31:00;;;;;;;;;;;28.90;83.50;;;;;;5074269;28;19908;-76
2022/06/26 12:33:25;;;;;;;;;;;30.20;76.70;;;;;;5072888;28;19912;-75
2022/06/26 12:35:51;;;;;;;;;;;29.30;77.50;;;;;;5074830;28;20285;-76
2022/06/26 12:38:24;;;;;;;;;;;30.50;73.00;;;;;;5073775;28;19919;-76
2022/06/26 12:40:49;;;;;;;;;;;32.40;70.50;;;;;;5073683;28;19908;-76
2022/06/26 12:43:16;;;;;;;;;;;32.30;71.30;;;;;;5072031;28;19908;-75
2022/06/26 12:45:41;;;;;;;;;;;34.00;68.70;;;;;;5073267;28;20357;-76
2022/06/26 12:48:07;;;;;;;;;;;33.70;62.80;;;;;;5073376;28;19920;-76
2022/06/26 12:50:32;;;;;;;;;;;33.70;64.70;;;;;;5072006;28;20262;-75
2022/06/26 12:52:58;;;;;;;;;;;33.40;66.30;;;;;;5064496;28;19908;-76
2022/06/26 12:55:23;;;;;;;;;;;33.80;66.30;;;;;;5072537;28;19908;-76
2022/06/26 12:57:49;;;;;;;;;;;35.00;64.00;;;;;;5073207;28;19908;-76
2022/06/26 13:00:14;;;;;;;;;;;34.00;64.20;;;;;;5072645;28;19908;-76
2022/06/26 13:02:40;;;;;;;;;;;33.80;61.90;;;;;;5071270;28;20369;-76
2022/06/26 13:05:06;;;;;;;;;;;34.00;60.80;;;;;;5072314;28;20163;-76
2022/06/26 13:07:31;;;;;;;;;;;34.90;61.60;;;;;;5072973;28;19909;-76
2022/06/26 13:09:57;;;;;;;;;;;35.40;57.80;;;;;;5072620;28;19959;-75
2022/06/26 13:12:23;;;;;;;;;;;35.80;60.20;;;;;;5071728;28;19951;-75
2022/06/26 13:14:48;;;;;;;;;;;34.00;59.40;;;;;;5070130;28;19931;-76
2022/06/26 13:17:14;;;;;;;;;;;34.60;61.10;;;;;;5072702;28;19978;-76
2022/06/26 13:19:39;;;;;;;;;;;35.40;58.30;;;;;;5071427;28;20255;-76
2022/06/26 13:22:05;;;;;;;;;;;36.40;56.50;;;;;;5072161;28;19909;-76
2022/06/26 13:24:31;;;;;;;;;;;35.60;60.10;;;;;;5071848;28;19995;-75
2022/06/26 13:26:56;;;;;;;;;;;33.80;59.00;;;;;;5072378;28;19981;-76
2022/06/26 13:29:22;;;;;;;;;;;32.60;62.00;;;;;;5070655;28;20335;-76
2022/06/26 13:31:48;;;;;;;;;;;33.50;60.10;;;;;;5065688;28;19912;-75
2022/06/26 13:34:14;;;;;;;;;;;34.50;62.40;;;;;;5070643;28;19913;-76
2022/06/26 13:36:39;;;;;;;;;;;34.30;58.90;;;;;;5072111;28;19970;-76
2022/06/26 13:39:05;;;;;;;;;;;33.30;63.80;;;;;;5072035;28;19944;-75
2022/06/26 13:41:31;;;;;;;;;;;33.30;62.90;;;;;;5070730;28;19908;-76
2022/06/26 13:43:57;;;;;;;;;;;33.40;61.90;;;;;;5071091;28;19913;-76
2022/06/26 13:46:22;;;;;;;;;;;33.00;61.50;;;;;;5071828;28;20411;-76
2022/06/26 13:48:47;;;;;;;;;;;34.10;59.80;;;;;;5072134;28;19915;-76
2022/06/26 13:51:13;;;;;;;;;;;33.90;60.60;;;;;;5071791;28;20280;-75
2022/06/26 13:53:38;;;;;;;;;;;33.60;61.20;;;;;;5070132;28;19917;-75
2022/06/26 13:56:04;;;;;;;;;;;33.40;60.60;;;;;;5071853;28;19913;-78
2022/06/26 13:58:30;;;;;;;;;;;34.20;58.60;;;;;;5071486;28;19909;-76
2022/06/26 14:00:55;;;;;;;;;;;35.10;58.10;;;;;;5057532;28;19959;-77
2022/06/26 14:03:21;;;;;;;;;;;35.00;56.70;;;;;;5070667;28;19915;-77
2022/06/26 14:05:46;;;;;;;;;;;34.50;58.00;;;;;;5070398;28;19952;-76
2022/06/26 14:08:12;;;;;;;;;;;35.20;59.90;;;;;;5071529;28;19909;-76
2022/06/26 14:10:38;;;;;;;;;;;35.70;57.10;;;;;;5071635;28;19908;-76
2022/06/26 14:13:04;;;;;;;;;;;35.20;58.50;;;;;;5067755;28;19916;-77
2022/06/26 14:15:29;;;;;;;;;;;34.80;59.70;;;;;;5071125;28;19916;-76
2022/06/26 14:17:55;;;;;;;;;;;35.20;58.50;;;;;;5071051;28;19909;-76
2022/06/26 14:20:20;;;;;;;;;;;34.60;61.00;;;;;;5071514;28;19909;-76
2022/06/26 14:28:15;;;;;;;;;;;34.50;60.10;;;;;;5067443;28;20400;-76